sensor_id;sensor_type;location;lat;lon;timestamp;pressure;altitude;pressure_sealevel;temperature;humidity
12949;BME280;6539;49.476;8.484;2022-10-26T00:01:15;100510.19;;;16.63;81.77
12949;BME280;6539;49.476;8.484;2022-10-26T00:03:43;100498.75;;;16.61;81.97
12949;BME280;6539;49.476;8.484;2022-10-26T00:06:18;100499.22;;;16.60;82.31
12949;BME280;6539;49.476;8.484;2022-10-26T00:08:46;100497.97;;;16.61;82.17
12949;BME280;6539;49.476;8.484;2022-10-26T00:11:14;100491.22;;;16.62;82.12
12949;BME280;6539;49.476;8.484;2022-10-26T00:13:43;100483.38;;;16.60;82.24
12949;BME280;6539;49.476;8.484;2022-10-26T00:16:19;100499.22;;;16.60;81.96
12949;BME280;6539;49.476;8.484;2022-10-26T00:18:46;100500.88;;;16.57;82.14
12949;BME280;6539;49.476;8.484;2022-10-26T00:21:15;100502.41;;;16.58;82.14
12949;BME280;6539;49.476;8.484;2022-10-26T00:23:43;100496.19;;;16.54;82.09
12949;BME280;6539;49.476;8.484;2022-10-26T00:26:10;100510.84;;;16.55;82.11
12949;BME280;6539;49.476;8.484;2022-10-26T00:28:41;100513.16;;;16.56;81.96
12949;BME280;6539;49.476;8.484;2022-10-26T00:31:14;100519.94;;;16.55;82.27
12949;BME280;6539;49.476;8.484;2022-10-26T00:33:40;100525.03;;;16.57;82.39
12949;BME280;6539;49.476;8.484;2022-10-26T00:36:07;100522.59;;;16.59;82.37
12949;BME280;6539;49.476;8.484;2022-10-26T00:38:35;100517.19;;;16.55;82.62
12949;BME280;6539;49.476;8.484;2022-10-26T00:41:00;100525.81;;;16.57;82.65
12949;BME280;6539;49.476;8.484;2022-10-26T00:46:01;100536.19;;;16.41;84.24
12949;BME280;6539;49.476;8.484;2022-10-26T00:48:41;100537.84;;;16.38;84.47
12949;BME280;6539;49.476;8.484;2022-10-26T00:51:30;100534.84;;;16.33;84.91
12949;BME280;6539;49.476;8.484;2022-10-26T00:54:02;100515.78;;;16.35;85.34
12949;BME280;6539;49.476;8.484;2022-10-26T00:56:30;100503.03;;;16.37;85.13
12949;BME280;6539;49.476;8.484;2022-10-26T00:59:05;100508.91;;;16.39;85.16
12949;BME280;6539;49.476;8.484;2022-10-26T01:01:34;100494.31;;;16.39;85.17
12949;BME280;6539;49.476;8.484;2022-10-26T01:04:01;100518.00;;;16.40;85.21
12949;BME280;6539;49.476;8.484;2022-10-26T01:06:32;100525.88;;;16.41;85.30
12949;BME280;6539;49.476;8.484;2022-10-26T01:09:00;100525.88;;;16.41;85.41
12949;BME280;6539;49.476;8.484;2022-10-26T01:11:26;100513.13;;;16.44;85.60
12949;BME280;6539;49.476;8.484;2022-10-26T01:13:53;100506.72;;;16.47;85.45
12949;BME280;6539;49.476;8.484;2022-10-26T01:16:53;100511.81;;;16.48;85.14
12949;BME280;6539;49.476;8.484;2022-10-26T01:22:43;100506.25;;;16.48;84.87
12949;BME280;6539;49.476;8.484;2022-10-26T01:31:55;100489.22;;;16.50;84.96
12949;BME280;6539;49.476;8.484;2022-10-26T01:34:54;100495.53;;;16.50;84.75
12949;BME280;6539;49.476;8.484;2022-10-26T01:37:29;100487.56;;;16.52;84.76
12949;BME280;6539;49.476;8.484;2022-10-26T01:42:58;100475.00;;;16.48;84.58
12949;BME280;6539;49.476;8.484;2022-10-26T01:45:26;100471.47;;;16.47;84.48
12949;BME280;6539;49.476;8.484;2022-10-26T01:47:56;100482.56;;;16.47;83.62
12949;BME280;6539;49.476;8.484;2022-10-26T01:50:29;100470.78;;;16.43;83.44
12949;BME280;6539;49.476;8.484;2022-10-26T01:52:56;100469.25;;;16.42;83.40
12949;BME280;6539;49.476;8.484;2022-10-26T02:01:43;100459.69;;;16.43;81.96
12949;BME280;6539;49.476;8.484;2022-10-26T02:12:32;100486.09;;;16.35;81.76
12949;BME280;6539;49.476;8.484;2022-10-26T02:15:17;100485.09;;;16.29;81.87
12949;BME280;6539;49.476;8.484;2022-10-26T02:17:49;100481.97;;;16.27;82.11
12949;BME280;6539;49.476;8.484;2022-10-26T02:20:32;100484.41;;;16.25;82.14
12949;BME280;6539;49.476;8.484;2022-10-26T02:23:06;100483.63;;;16.25;82.28
12949;BME280;6539;49.476;8.484;2022-10-26T02:25:43;100470.25;;;16.23;82.31
12949;BME280;6539;49.476;8.484;2022-10-26T02:28:23;100472.56;;;16.25;82.26
12949;BME280;6539;49.476;8.484;2022-10-26T02:30:56;100470.44;;;16.29;82.03
12949;BME280;6539;49.476;8.484;2022-10-26T02:33:27;100468.47;;;16.29;82.01
12949;BME280;6539;49.476;8.484;2022-10-26T02:35:58;100454.50;;;16.33;81.94
12949;BME280;6539;49.476;8.484;2022-10-26T02:38:28;100449.72;;;16.33;81.88
12949;BME280;6539;49.476;8.484;2022-10-26T02:40:59;100459.59;;;16.34;81.95
12949;BME280;6539;49.476;8.484;2022-10-26T02:43:33;100467.13;;;16.34;82.14
12949;BME280;6539;49.476;8.484;2022-10-26T02:46:10;100475.44;;;16.34;82.39
12949;BME280;6539;49.476;8.484;2022-10-26T02:48:38;100475.00;;;16.35;82.77
12949;BME280;6539;49.476;8.484;2022-10-26T02:54:36;100478.75;;;16.29;84.36
12949;BME280;6539;49.476;8.484;2022-10-26T02:59:46;100464.03;;;16.19;85.59
12949;BME280;6539;49.476;8.484;2022-10-26T03:02:17;100477.31;;;16.24;85.61
12949;BME280;6539;49.476;8.484;2022-10-26T03:04:49;100493.72;;;16.19;85.39
12949;BME280;6539;49.476;8.484;2022-10-26T03:07:26;100489.72;;;16.20;85.05
12949;BME280;6539;49.476;8.484;2022-10-26T03:09:52;100489.38;;;16.18;85.63
12949;BME280;6539;49.476;8.484;2022-10-26T03:12:17;100500.00;;;16.07;86.04
12949;BME280;6539;49.476;8.484;2022-10-26T03:14:43;100503.88;;;16.09;86.40
12949;BME280;6539;49.476;8.484;2022-10-26T03:17:09;100514.28;;;16.05;85.95
12949;BME280;6539;49.476;8.484;2022-10-26T03:19:35;100521.13;;;16.00;86.26
12949;BME280;6539;49.476;8.484;2022-10-26T03:22:02;100507.75;;;15.99;85.19
12949;BME280;6539;49.476;8.484;2022-10-26T03:24:27;100508.38;;;15.90;85.66
12949;BME280;6539;49.476;8.484;2022-10-26T03:26:55;100520.31;;;15.87;85.55
12949;BME280;6539;49.476;8.484;2022-10-26T03:29:23;100514.56;;;15.82;86.36
12949;BME280;6539;49.476;8.484;2022-10-26T03:31:49;100508.91;;;15.85;86.61
12949;BME280;6539;49.476;8.484;2022-10-26T03:34:19;100519.34;;;15.94;86.57
12949;BME280;6539;49.476;8.484;2022-10-26T03:36:46;100522.78;;;15.98;86.09
12949;BME280;6539;49.476;8.484;2022-10-26T03:39:17;100512.41;;;16.02;85.76
12949;BME280;6539;49.476;8.484;2022-10-26T03:41:42;100500.44;;;16.05;85.31
12949;BME280;6539;49.476;8.484;2022-10-26T03:44:10;100497.22;;;16.07;85.07
12949;BME280;6539;49.476;8.484;2022-10-26T03:46:36;100494.44;;;16.07;84.55
12949;BME280;6539;49.476;8.484;2022-10-26T03:49:02;100495.91;;;16.11;84.16
12949;BME280;6539;49.476;8.484;2022-10-26T03:51:28;100473.66;;;16.15;83.65
12949;BME280;6539;49.476;8.484;2022-10-26T03:53:57;100474.44;;;16.15;82.99
12949;BME280;6539;49.476;8.484;2022-10-26T03:56:26;100468.91;;;16.15;82.41
12949;BME280;6539;49.476;8.484;2022-10-26T03:58:54;100470.88;;;16.15;82.11
12949;BME280;6539;49.476;8.484;2022-10-26T04:01:20;100463.91;;;16.10;80.78
12949;BME280;6539;49.476;8.484;2022-10-26T04:03:46;100471.88;;;16.08;80.71
12949;BME280;6539;49.476;8.484;2022-10-26T04:06:16;100469.88;;;16.09;81.02
12949;BME280;6539;49.476;8.484;2022-10-26T04:08:44;100485.28;;;16.10;80.32
12949;BME280;6539;49.476;8.484;2022-10-26T04:11:10;100471.88;;;16.08;80.80
12949;BME280;6539;49.476;8.484;2022-10-26T04:13:39;100478.63;;;16.07;80.99
12949;BME280;6539;49.476;8.484;2022-10-26T04:16:05;100479.06;;;16.06;81.33
12949;BME280;6539;49.476;8.484;2022-10-26T04:18:31;100478.06;;;15.99;81.17
12949;BME280;6539;49.476;8.484;2022-10-26T04:21:00;100478.94;;;15.96;81.29
12949;BME280;6539;49.476;8.484;2022-10-26T04:23:26;100478.16;;;15.96;81.54
12949;BME280;6539;49.476;8.484;2022-10-26T04:25:52;100476.63;;;15.95;81.67
12949;BME280;6539;49.476;8.484;2022-10-26T04:28:18;100479.47;;;15.91;81.90
12949;BME280;6539;49.476;8.484;2022-10-26T04:30:47;100467.03;;;15.83;82.20
12949;BME280;6539;49.476;8.484;2022-10-26T04:33:13;100465.72;;;15.88;82.14
12949;BME280;6539;49.476;8.484;2022-10-26T04:35:41;100467.31;;;15.89;81.83
12949;BME280;6539;49.476;8.484;2022-10-26T04:38:11;100466.63;;;15.85;81.74
12949;BME280;6539;49.476;8.484;2022-10-26T04:40:37;100472.16;;;15.85;81.89
12949;BME280;6539;49.476;8.484;2022-10-26T04:43:05;100477.94;;;15.90;82.04
12949;BME280;6539;49.476;8.484;2022-10-26T04:45:31;100481.81;;;15.93;81.53
12949;BME280;6539;49.476;8.484;2022-10-26T04:48:09;100476.63;;;15.95;80.27
12949;BME280;6539;49.476;8.484;2022-10-26T04:50:36;100489.69;;;15.94;80.98
12949;BME280;6539;49.476;8.484;2022-10-26T04:53:06;100481.25;;;15.98;80.34
12949;BME280;6539;49.476;8.484;2022-10-26T04:55:35;100485.91;;;16.01;80.55
12949;BME280;6539;49.476;8.484;2022-10-26T04:58:07;100479.19;;;16.02;80.39
12949;BME280;6539;49.476;8.484;2022-10-26T05:00:35;100481.94;;;16.02;79.16
12949;BME280;6539;49.476;8.484;2022-10-26T05:03:08;100478.28;;;16.05;79.54
12949;BME280;6539;49.476;8.484;2022-10-26T05:05:35;100478.94;;;16.09;79.33
12949;BME280;6539;49.476;8.484;2022-10-26T05:08:07;100473.75;;;16.11;79.03
12949;BME280;6539;49.476;8.484;2022-10-26T05:10:33;100472.22;;;16.10;78.31
12949;BME280;6539;49.476;8.484;2022-10-26T05:13:01;100460.34;;;16.10;80.09
12949;BME280;6539;49.476;8.484;2022-10-26T05:15:28;100461.22;;;16.07;78.43
12949;BME280;6539;49.476;8.484;2022-10-26T05:20:22;100473.97;;;16.04;79.39
12949;BME280;6539;49.476;8.484;2022-10-26T05:22:54;100478.28;;;16.05;78.99
12949;BME280;6539;49.476;8.484;2022-10-26T05:25:28;100493.59;;;16.10;78.59
12949;BME280;6539;49.476;8.484;2022-10-26T05:27:59;100486.41;;;16.12;78.27
12949;BME280;6539;49.476;8.484;2022-10-26T05:30:27;100486.28;;;16.16;77.80
12949;BME280;6539;49.476;8.484;2022-10-26T05:32:59;100494.91;;;16.18;77.90
12949;BME280;6539;49.476;8.484;2022-10-26T05:35:25;100500.38;;;16.21;77.14
12949;BME280;6539;49.476;8.484;2022-10-26T05:37:54;100500.38;;;16.21;76.78
12949;BME280;6539;49.476;8.484;2022-10-26T05:40:20;100493.19;;;16.24;76.31
12949;BME280;6539;49.476;8.484;2022-10-26T05:42:49;100498.81;;;16.20;76.52
12949;BME280;6539;49.476;8.484;2022-10-26T05:45:22;100497.50;;;16.25;75.87
12949;BME280;6539;49.476;8.484;2022-10-26T05:47:48;100499.81;;;16.26;76.36
12949;BME280;6539;49.476;8.484;2022-10-26T05:50:13;100502.91;;;16.28;75.62
12949;BME280;6539;49.476;8.484;2022-10-26T05:52:46;100519.31;;;16.23;75.55
12949;BME280;6539;49.476;8.484;2022-10-26T05:55:18;100504.25;;;16.24;75.58
12949;BME280;6539;49.476;8.484;2022-10-26T05:57:46;100521.94;;;16.14;75.51
12949;BME280;6539;49.476;8.484;2022-10-26T06:00:19;100518.97;;;16.08;75.74
12949;BME280;6539;49.476;8.484;2022-10-26T06:05:54;100530.72;;;16.12;75.38
12949;BME280;6539;49.476;8.484;2022-10-26T06:08:23;100539.34;;;16.14;74.85
12949;BME280;6539;49.476;8.484;2022-10-26T06:10:53;100555.88;;;16.18;74.56
12949;BME280;6539;49.476;8.484;2022-10-26T06:13:20;100556.41;;;16.13;74.76
12949;BME280;6539;49.476;8.484;2022-10-26T06:16:20;100557.53;;;16.15;74.89
12949;BME280;6539;49.476;8.484;2022-10-26T06:19:05;100557.41;;;16.06;75.36
12949;BME280;6539;49.476;8.484;2022-10-26T06:24:49;100558.06;;;16.10;75.32
12949;BME280;6539;49.476;8.484;2022-10-26T06:28:13;100562.94;;;16.06;75.69
12949;BME280;6539;49.476;8.484;2022-10-26T06:30:44;100566.84;;;16.09;75.90
12949;BME280;6539;49.476;8.484;2022-10-26T06:33:12;100568.81;;;16.08;76.34
12949;BME280;6539;49.476;8.484;2022-10-26T06:38:10;100572.13;;;16.03;76.61
12949;BME280;6539;49.476;8.484;2022-10-26T06:40:42;100574.88;;;16.03;76.86
12949;BME280;6539;49.476;8.484;2022-10-26T06:43:22;100576.44;;;16.04;76.96
12949;BME280;6539;49.476;8.484;2022-10-26T06:46:21;100581.53;;;16.06;77.16
12949;BME280;6539;49.476;8.484;2022-10-26T06:49:18;100584.19;;;16.09;77.35
12949;BME280;6539;49.476;8.484;2022-10-26T06:54:53;100590.66;;;16.19;77.13
12949;BME280;6539;49.476;8.484;2022-10-26T06:57:22;100586.56;;;16.11;77.57
12949;BME280;6539;49.476;8.484;2022-10-26T06:59:56;100598.38;;;16.11;77.90
12949;BME280;6539;49.476;8.484;2022-10-26T07:02:24;100607.28;;;16.19;77.52
12949;BME280;6539;49.476;8.484;2022-10-26T07:04:52;100599.97;;;16.12;77.52
12949;BME280;6539;49.476;8.484;2022-10-26T07:07:24;100597.53;;;16.14;77.34
12949;BME280;6539;49.476;8.484;2022-10-26T07:09:54;100599.03;;;16.02;78.30
12949;BME280;6539;49.476;8.484;2022-10-26T07:12:22;100613.31;;;16.01;78.44
12949;BME280;6539;49.476;8.484;2022-10-26T07:14:48;100615.56;;;16.06;78.08
12949;BME280;6539;49.476;8.484;2022-10-26T07:17:16;100617.34;;;16.13;78.15
12949;BME280;6539;49.476;8.484;2022-10-26T07:19:42;100618.63;;;15.95;79.22
12949;BME280;6539;49.476;8.484;2022-10-26T07:22:09;100625.25;;;15.98;79.25
12949;BME280;6539;49.476;8.484;2022-10-26T07:24:39;100631.56;;;15.98;79.62
12949;BME280;6539;49.476;8.484;2022-10-26T07:27:08;100626.31;;;16.04;79.38
12949;BME280;6539;49.476;8.484;2022-10-26T07:29:34;100634.59;;;16.04;79.60
12949;BME280;6539;49.476;8.484;2022-10-26T07:32:00;100631.28;;;16.09;79.53
12949;BME280;6539;49.476;8.484;2022-10-26T07:34:28;100632.75;;;16.14;79.52
12949;BME280;6539;49.476;8.484;2022-10-26T07:36:58;100633.72;;;16.07;79.76
12949;BME280;6539;49.476;8.484;2022-10-26T07:39:29;100639.94;;;16.11;79.46
12949;BME280;6539;49.476;8.484;2022-10-26T07:41:57;100643.81;;;16.14;79.53
12949;BME280;6539;49.476;8.484;2022-10-26T07:44:26;100640.03;;;16.08;80.00
12949;BME280;6539;49.476;8.484;2022-10-26T07:46:57;100656.13;;;16.13;79.97
12949;BME280;6539;49.476;8.484;2022-10-26T07:49:23;100656.56;;;16.11;79.94
12949;BME280;6539;49.476;8.484;2022-10-26T07:51:51;100662.09;;;16.11;80.01
12949;BME280;6539;49.476;8.484;2022-10-26T07:54:17;100656.56;;;16.11;79.90
12949;BME280;6539;49.476;8.484;2022-10-26T07:56:48;100650.94;;;16.15;80.13
12949;BME280;6539;49.476;8.484;2022-10-26T07:59:16;100666.25;;;16.19;79.93
12949;BME280;6539;49.476;8.484;2022-10-26T08:01:43;100651.50;;;16.22;79.70
12949;BME280;6539;49.476;8.484;2022-10-26T08:04:09;100656.97;;;16.26;79.80
12949;BME280;6539;49.476;8.484;2022-10-26T08:06:35;100664.31;;;16.32;79.73
12949;BME280;6539;49.476;8.484;2022-10-26T08:09:01;100667.16;;;16.29;79.92
12949;BME280;6539;49.476;8.484;2022-10-26T08:11:29;100664.38;;;16.29;79.61
12949;BME280;6539;49.476;8.484;2022-10-26T08:13:55;100675.72;;;16.34;79.50
12949;BME280;6539;49.476;8.484;2022-10-26T08:16:23;100677.38;;;16.32;79.56
12949;BME280;6539;49.476;8.484;2022-10-26T08:18:52;100682.13;;;16.31;79.76
12949;BME280;6539;49.476;8.484;2022-10-26T08:21:18;100683.59;;;16.36;79.17
12949;BME280;6539;49.476;8.484;2022-10-26T08:23:44;100686.59;;;16.41;78.99
12949;BME280;6539;49.476;8.484;2022-10-26T08:26:12;100692.78;;;16.33;79.07
12949;BME280;6539;49.476;8.484;2022-10-26T08:28:39;100693.03;;;16.38;79.26
12949;BME280;6539;49.476;8.484;2022-10-26T08:31:06;100691.13;;;16.35;79.35
12949;BME280;6539;49.476;8.484;2022-10-26T08:33:32;100693.91;;;16.35;79.59
12949;BME280;6539;49.476;8.484;2022-10-26T08:36:01;100684.16;;;16.43;79.17
12949;BME280;6539;49.476;8.484;2022-10-26T08:38:28;100687.97;;;16.49;79.06
12949;BME280;6539;49.476;8.484;2022-10-26T08:40:56;100686.59;;;16.57;78.85
12949;BME280;6539;49.476;8.484;2022-10-26T08:43:41;100683.50;;;16.68;78.72
12949;BME280;6539;49.476;8.484;2022-10-26T08:46:29;100692.06;;;16.73;78.05
12949;BME280;6539;49.476;8.484;2022-10-26T08:49:14;100690.19;;;16.83;78.02
12949;BME280;6539;49.476;8.484;2022-10-26T08:51:51;100691.81;;;17.09;76.73
12949;BME280;6539;49.476;8.484;2022-10-26T08:56:59;100692.38;;;17.67;73.58
12949;BME280;6539;49.476;8.484;2022-10-26T08:59:42;100697.31;;;17.97;73.12
12949;BME280;6539;49.476;8.484;2022-10-26T09:02:16;100694.44;;;18.35;70.63
12949;BME280;6539;49.476;8.484;2022-10-26T09:04:43;100694.50;;;18.66;69.21
12949;BME280;6539;49.476;8.484;2022-10-26T09:07:34;100706.41;;;19.40;66.51
12949;BME280;6539;49.476;8.484;2022-10-26T09:10:32;100707.97;;;20.08;63.93
12949;BME280;6539;49.476;8.484;2022-10-26T09:21:43;100726.38;;;19.88;63.43
12949;BME280;6539;49.476;8.484;2022-10-26T09:24:30;100723.38;;;19.64;64.88
12949;BME280;6539;49.476;8.484;2022-10-26T09:27:22;100729.81;;;19.52;65.67
12949;BME280;6539;49.476;8.484;2022-10-26T09:29:52;100722.66;;;19.42;66.00
12949;BME280;6539;49.476;8.484;2022-10-26T09:32:38;100736.63;;;19.51;66.94
12949;BME280;6539;49.476;8.484;2022-10-26T09:35:57;100737.31;;;20.31;64.08
12949;BME280;6539;49.476;8.484;2022-10-26T09:41:35;100728.28;;;21.50;58.81
12949;BME280;6539;49.476;8.484;2022-10-26T09:44:23;100736.53;;;21.45;59.06
12949;BME280;6539;49.476;8.484;2022-10-26T09:49:53;100730.06;;;21.39;59.42
12949;BME280;6539;49.476;8.484;2022-10-26T09:52:20;100735.88;;;21.17;60.01
12949;BME280;6539;49.476;8.484;2022-10-26T09:54:48;100729.84;;;20.91;60.84
12949;BME280;6539;49.476;8.484;2022-10-26T09:57:18;100738.84;;;20.68;61.63
12949;BME280;6539;49.476;8.484;2022-10-26T09:59:45;100734.78;;;20.15;64.23
12949;BME280;6539;49.476;8.484;2022-10-26T10:02:39;100747.31;;;20.01;65.17
12949;BME280;6539;49.476;8.484;2022-10-26T10:05:26;100740.78;;;19.95;65.82
12949;BME280;6539;49.476;8.484;2022-10-26T10:08:24;100758.22;;;19.68;67.05
12949;BME280;6539;49.476;8.484;2022-10-26T10:11:12;100763.91;;;19.65;67.69
12949;BME280;6539;49.476;8.484;2022-10-26T10:13:41;100759.69;;;19.60;68.16
12949;BME280;6539;49.476;8.484;2022-10-26T10:16:21;100762.78;;;19.53;69.19
12949;BME280;6539;49.476;8.484;2022-10-26T10:19:03;100759.63;;;19.73;68.79
12949;BME280;6539;49.476;8.484;2022-10-26T10:21:48;100762.75;;;19.93;68.14
12949;BME280;6539;49.476;8.484;2022-10-26T10:29:52;100773.69;;;20.18;67.45
12949;BME280;6539;49.476;8.484;2022-10-26T10:34:53;100783.75;;;20.16;67.50
12949;BME280;6539;49.476;8.484;2022-10-26T10:37:29;100785.59;;;20.19;67.83
12949;BME280;6539;49.476;8.484;2022-10-26T10:40:19;100784.69;;;20.22;67.71
12949;BME280;6539;49.476;8.484;2022-10-26T10:42:47;100787.94;;;20.29;67.46
12949;BME280;6539;49.476;8.484;2022-10-26T10:45:27;100794.66;;;20.41;67.17
12949;BME280;6539;49.476;8.484;2022-10-26T10:48:22;100793.25;;;20.36;67.64
12949;BME280;6539;49.476;8.484;2022-10-26T10:51:04;100792.50;;;20.63;67.35
12949;BME280;6539;49.476;8.484;2022-10-26T10:53:51;100799.78;;;21.06;65.00
12949;BME280;6539;49.476;8.484;2022-10-26T10:56:46;100794.16;;;21.33;64.50
12949;BME280;6539;49.476;8.484;2022-10-26T11:05:11;100794.28;;;21.89;62.03
12949;BME280;6539;49.476;8.484;2022-10-26T11:07:53;100800.19;;;21.91;61.73
12949;BME280;6539;49.476;8.484;2022-10-26T11:10:23;100809.06;;;21.81;62.11
12949;BME280;6539;49.476;8.484;2022-10-26T11:12:58;100809.50;;;21.47;63.30
12949;BME280;6539;49.476;8.484;2022-10-26T11:15:33;100809.50;;;21.47;63.33
12949;BME280;6539;49.476;8.484;2022-10-26T11:18:25;100804.69;;;21.47;63.73
12949;BME280;6539;49.476;8.484;2022-10-26T11:21:16;100804.06;;;21.43;63.90
12949;BME280;6539;49.476;8.484;2022-10-26T11:27:10;100813.88;;;21.30;64.78
12949;BME280;6539;49.476;8.484;2022-10-26T11:30:08;100818.41;;;21.09;65.15
12949;BME280;6539;49.476;8.484;2022-10-26T11:33:08;100823.50;;;20.83;65.85
12949;BME280;6539;49.476;8.484;2022-10-26T11:35:59;100818.84;;;20.71;66.44
12949;BME280;6539;49.476;8.484;2022-10-26T11:41:51;100825.53;;;20.74;66.88
12949;BME280;6539;49.476;8.484;2022-10-26T11:44:42;100823.81;;;20.76;67.02
12949;BME280;6539;49.476;8.484;2022-10-26T11:47:18;100823.03;;;20.67;67.59
12949;BME280;6539;49.476;8.484;2022-10-26T11:50:24;100821.94;;;20.73;67.36
12949;BME280;6539;49.476;8.484;2022-10-26T11:53:15;100829.41;;;20.67;67.86
12949;BME280;6539;49.476;8.484;2022-10-26T11:55:51;100825.03;;;20.66;67.71
12949;BME280;6539;49.476;8.484;2022-10-26T11:58:25;100830.50;;;20.70;67.57
12949;BME280;6539;49.476;8.484;2022-10-26T12:01:08;100824.72;;;20.64;67.18
12949;BME280;6539;49.476;8.484;2022-10-26T12:03:45;100821.94;;;20.64;67.50
12949;BME280;6539;49.476;8.484;2022-10-26T12:06:24;100819.47;;;20.66;67.47
12949;BME280;6539;49.476;8.484;2022-10-26T12:09:08;100822.25;;;20.66;67.55
12949;BME280;6539;49.476;8.484;2022-10-26T12:11:47;100832.81;;;20.71;67.54
12949;BME280;6539;49.476;8.484;2022-10-26T12:17:38;100833.91;;;20.83;67.02
12949;BME280;6539;49.476;8.484;2022-10-26T12:23:36;100835.59;;;20.80;67.29
12949;BME280;6539;49.476;8.484;2022-10-26T12:39:40;100837.88;;;21.54;64.89
12949;BME280;6539;49.476;8.484;2022-10-26T13:01:48;100853.59;;;21.24;66.63
12949;BME280;6539;49.476;8.484;2022-10-26T13:07:25;100864.50;;;21.04;67.82
12949;BME280;6539;49.476;8.484;2022-10-26T13:12:45;100857.78;;;21.20;67.21
12949;BME280;6539;49.476;8.484;2022-10-26T13:15:39;100855.94;;;21.17;66.96
12949;BME280;6539;49.476;8.484;2022-10-26T13:18:16;100859.97;;;21.25;66.91
12949;BME280;6539;49.476;8.484;2022-10-26T13:21:13;100857.34;;;21.21;66.71
12949;BME280;6539;49.476;8.484;2022-10-26T13:24:00;100860.13;;;21.21;66.94
12949;BME280;6539;49.476;8.484;2022-10-26T13:26:28;100860.75;;;21.25;66.87
12949;BME280;6539;49.476;8.484;2022-10-26T13:29:00;100863.38;;;21.29;66.83
12949;BME280;6539;49.476;8.484;2022-10-26T13:34:13;100863.84;;;21.37;66.98
12949;BME280;6539;49.476;8.484;2022-10-26T13:37:21;100860.25;;;21.36;67.21
12949;BME280;6539;49.476;8.484;2022-10-26T13:39:50;100861.66;;;21.32;67.14
12949;BME280;6539;49.476;8.484;2022-10-26T13:42:31;100854.84;;;21.23;67.42
12949;BME280;6539;49.476;8.484;2022-10-26T13:45:12;100862.94;;;21.12;68.16
12949;BME280;6539;49.476;8.484;2022-10-26T13:47:55;100856.44;;;21.06;68.87
12949;BME280;6539;49.476;8.484;2022-10-26T13:50:52;100862.31;;;21.08;68.74
12949;BME280;6539;49.476;8.484;2022-10-26T13:53:37;100863.38;;;21.02;69.15
12949;BME280;6539;49.476;8.484;2022-10-26T13:59:41;100871.31;;;21.12;67.77
12949;BME280;6539;49.476;8.484;2022-10-26T14:02:29;100867.72;;;21.12;67.50
12949;BME280;6539;49.476;8.484;2022-10-26T14:05:04;100867.91;;;21.08;67.69
12949;BME280;6539;49.476;8.484;2022-10-26T14:10:37;100878.13;;;21.11;67.90
12949;BME280;6539;49.476;8.484;2022-10-26T14:13:13;100876.59;;;21.10;67.34
12949;BME280;6539;49.476;8.484;2022-10-26T14:15:43;100889.28;;;21.11;67.64
12949;BME280;6539;49.476;8.484;2022-10-26T14:18:20;100887.75;;;21.10;67.52
12949;BME280;6539;49.476;8.484;2022-10-26T14:21:02;100881.88;;;21.08;67.60
12949;BME280;6539;49.476;8.484;2022-10-26T14:23:45;100890.06;;;21.12;67.42
12949;BME280;6539;49.476;8.484;2022-10-26T14:26:40;100898.63;;;21.08;67.29
12949;BME280;6539;49.476;8.484;2022-10-26T14:29:23;100887.88;;;21.07;66.91
12949;BME280;6539;49.476;8.484;2022-10-26T14:31:50;100893.94;;;21.05;67.02
12949;BME280;6539;49.476;8.484;2022-10-26T14:34:18;100892.84;;;21.03;67.46
12949;BME280;6539;49.476;8.484;2022-10-26T14:37:00;100899.22;;;21.03;67.23
12949;BME280;6539;49.476;8.484;2022-10-26T14:39:34;100893.31;;;21.01;67.60
12949;BME280;6539;49.476;8.484;2022-10-26T14:42:26;100896.75;;;21.05;67.54
12949;BME280;6539;49.476;8.484;2022-10-26T14:44:53;100904.81;;;21.03;67.88
12949;BME280;6539;49.476;8.484;2022-10-26T14:47:31;100901.53;;;21.05;67.50
12949;BME280;6539;49.476;8.484;2022-10-26T14:49:59;100904.34;;;21.05;67.46
12949;BME280;6539;49.476;8.484;2022-10-26T14:52:30;100907.13;;;21.05;67.35
12949;BME280;6539;49.476;8.484;2022-10-26T14:55:14;100906.47;;;21.01;67.56
12949;BME280;6539;49.476;8.484;2022-10-26T14:57:47;100906.94;;;20.99;67.86
12949;BME280;6539;49.476;8.484;2022-10-26T15:00:22;100914.53;;;20.99;67.77
12949;BME280;6539;49.476;8.484;2022-10-26T15:02:55;100913.94;;;20.95;68.10
12949;BME280;6539;49.476;8.484;2022-10-26T15:05:27;100910.03;;;20.92;68.25
12949;BME280;6539;49.476;8.484;2022-10-26T15:07:55;100914.22;;;20.97;67.98
12949;BME280;6539;49.476;8.484;2022-10-26T15:13:20;100916.72;;;20.95;68.11
12949;BME280;6539;49.476;8.484;2022-10-26T15:15:53;100924.00;;;20.92;68.45
12949;BME280;6539;49.476;8.484;2022-10-26T15:18:32;100921.53;;;20.85;68.64
12949;BME280;6539;49.476;8.484;2022-10-26T15:21:02;100934.22;;;20.86;68.89
12949;BME280;6539;49.476;8.484;2022-10-26T15:23:31;100943.06;;;20.85;68.75
12949;BME280;6539;49.476;8.484;2022-10-26T15:26:01;100940.28;;;20.85;68.95
12949;BME280;6539;49.476;8.484;2022-10-26T15:31:28;100957.16;;;20.81;69.29
12949;BME280;6539;49.476;8.484;2022-10-26T15:36:32;100961.81;;;20.75;69.44
12949;BME280;6539;49.476;8.484;2022-10-26T15:39:00;100967.69;;;20.77;69.71
12949;BME280;6539;49.476;8.484;2022-10-26T15:41:29;100969.06;;;20.73;70.17
12949;BME280;6539;49.476;8.484;2022-10-26T15:44:03;100971.25;;;20.69;70.40
12949;BME280;6539;49.476;8.484;2022-10-26T15:46:36;100961.63;;;20.61;70.75
12949;BME280;6539;49.476;8.484;2022-10-26T15:49:17;100961.16;;;20.62;71.00
12949;BME280;6539;49.476;8.484;2022-10-26T15:51:48;100968.88;;;20.58;71.29
12949;BME280;6539;49.476;8.484;2022-10-26T15:54:14;100964.69;;;20.53;71.43
12949;BME280;6539;49.476;8.484;2022-10-26T15:56:42;100965.94;;;20.52;71.66
12949;BME280;6539;49.476;8.484;2022-10-26T15:59:18;100964.53;;;20.48;71.96
12949;BME280;6539;49.476;8.484;2022-10-26T16:01:45;100976.59;;;20.45;72.24
12949;BME280;6539;49.476;8.484;2022-10-26T16:04:11;100971.94;;;20.42;72.21
12949;BME280;6539;49.476;8.484;2022-10-26T16:06:43;100982.63;;;20.43;72.30